sensor_id;sensor_type;location;lat;lon;timestamp;P1;durP1;ratioP1;P2;durP2;ratioP2
16484;SDS011;8353;47.856;12.344;2023-08-01T00:02:13;3.85;;;2.20;;
16484;SDS011;8353;47.856;12.344;2023-08-01T00:04:44;2.13;;;1.98;;
16484;SDS011;8353;47.856;12.344;2023-08-01T00:07:15;2.00;;;1.80;;
16484;SDS011;8353;47.856;12.344;2023-08-01T00:09:45;2.42;;;1.90;;
16484;SDS011;8353;47.856;12.344;2023-08-01T00:12:17;3.22;;;2.47;;
16484;SDS011;8353;47.856;12.344;2023-08-01T00:14:47;2.35;;;2.15;;
16484;SDS011;8353;47.856;12.344;2023-08-01T00:17:18;2.78;;;2.13;;
16484;SDS011;8353;47.856;12.344;2023-08-01T00:19:49;3.00;;;2.20;;
16484;SDS011;8353;47.856;12.344;2023-08-01T00:22:20;2.60;;;2.40;;
16484;SDS011;8353;47.856;12.344;2023-08-01T00:24:53;2.10;;;2.00;;
16484;SDS011;8353;47.856;12.344;2023-08-01T00:27:25;3.10;;;2.13;;
16484;SDS011;8353;47.856;12.344;2023-08-01T00:29:57;3.85;;;2.85;;
16484;SDS011;8353;47.856;12.344;2023-08-01T00:32:28;3.10;;;2.55;;
16484;SDS011;8353;47.856;12.344;2023-08-01T00:34:58;3.67;;;2.42;;
16484;SDS011;8353;47.856;12.344;2023-08-01T00:37:28;3.05;;;2.75;;
16484;SDS011;8353;47.856;12.344;2023-08-01T00:39:58;4.25;;;3.00;;
16484;SDS011;8353;47.856;12.344;2023-08-01T00:42:30;2.88;;;2.50;;
16484;SDS011;8353;47.856;12.344;2023-08-01T00:45:00;4.50;;;2.85;;
16484;SDS011;8353;47.856;12.344;2023-08-01T00:47:34;3.85;;;2.80;;
16484;SDS011;8353;47.856;12.344;2023-08-01T00:50:05;3.00;;;2.60;;
16484;SDS011;8353;47.856;12.344;2023-08-01T00:52:36;3.97;;;2.75;;
16484;SDS011;8353;47.856;12.344;2023-08-01T00:55:07;3.80;;;3.10;;
16484;SDS011;8353;47.856;12.344;2023-08-01T00:57:39;3.05;;;2.63;;
16484;SDS011;8353;47.856;12.344;2023-08-01T01:00:11;3.65;;;3.00;;
16484;SDS011;8353;47.856;12.344;2023-08-01T01:02:42;2.70;;;2.38;;
16484;SDS011;8353;47.856;12.344;2023-08-01T01:05:12;3.28;;;2.67;;
16484;SDS011;8353;47.856;12.344;2023-08-01T01:07:43;3.17;;;2.83;;
16484;SDS011;8353;47.856;12.344;2023-08-01T01:10:14;3.53;;;2.72;;
16484;SDS011;8353;47.856;12.344;2023-08-01T01:12:46;2.63;;;2.35;;
16484;SDS011;8353;47.856;12.344;2023-08-01T01:15:19;3.42;;;2.90;;
16484;SDS011;8353;47.856;12.344;2023-08-01T01:17:49;3.55;;;2.53;;
16484;SDS011;8353;47.856;12.344;2023-08-01T01:20:22;2.28;;;2.05;;
16484;SDS011;8353;47.856;12.344;2023-08-01T01:22:55;4.32;;;2.40;;
16484;SDS011;8353;47.856;12.344;2023-08-01T01:25:26;2.95;;;2.70;;
16484;SDS011;8353;47.856;12.344;2023-08-01T01:27:57;4.18;;;3.03;;
16484;SDS011;8353;47.856;12.344;2023-08-01T01:30:28;3.22;;;2.47;;
16484;SDS011;8353;47.856;12.344;2023-08-01T01:32:59;4.00;;;2.78;;
16484;SDS011;8353;47.856;12.344;2023-08-01T01:35:32;3.22;;;2.53;;
16484;SDS011;8353;47.856;12.344;2023-08-01T01:38:05;2.60;;;2.40;;
16484;SDS011;8353;47.856;12.344;2023-08-01T01:40:35;3.50;;;2.70;;
16484;SDS011;8353;47.856;12.344;2023-08-01T01:43:06;3.30;;;2.58;;
16484;SDS011;8353;47.856;12.344;2023-08-01T01:45:36;2.65;;;2.45;;
16484;SDS011;8353;47.856;12.344;2023-08-01T01:48:06;2.72;;;2.42;;
16484;SDS011;8353;47.856;12.344;2023-08-01T01:50:36;2.83;;;2.53;;
16484;SDS011;8353;47.856;12.344;2023-08-01T01:53:23;2.55;;;2.35;;
16484;SDS011;8353;47.856;12.344;2023-08-01T01:55:53;2.63;;;2.42;;
16484;SDS011;8353;47.856;12.344;2023-08-01T01:58:24;3.75;;;2.67;;
16484;SDS011;8353;47.856;12.344;2023-08-01T02:00:54;2.28;;;2.03;;
16484;SDS011;8353;47.856;12.344;2023-08-01T02:03:24;3.53;;;2.70;;
16484;SDS011;8353;47.856;12.344;2023-08-01T02:05:55;3.13;;;2.33;;
16484;SDS011;8353;47.856;12.344;2023-08-01T02:08:27;3.20;;;2.47;;
16484;SDS011;8353;47.856;12.344;2023-08-01T02:10:57;3.17;;;2.65;;
16484;SDS011;8353;47.856;12.344;2023-08-01T02:13:28;2.88;;;2.58;;
16484;SDS011;8353;47.856;12.344;2023-08-01T02:15:59;3.03;;;2.60;;
16484;SDS011;8353;47.856;12.344;2023-08-01T02:18:30;2.65;;;2.30;;
16484;SDS011;8353;47.856;12.344;2023-08-01T02:21:00;3.28;;;2.40;;
16484;SDS011;8353;47.856;12.344;2023-08-01T02:23:31;2.90;;;2.50;;
16484;SDS011;8353;47.856;12.344;2023-08-01T02:26:05;2.65;;;2.25;;
16484;SDS011;8353;47.856;12.344;2023-08-01T02:28:36;3.00;;;2.35;;
16484;SDS011;8353;47.856;12.344;2023-08-01T02:31:06;2.35;;;2.15;;
16484;SDS011;8353;47.856;12.344;2023-08-01T02:33:37;2.50;;;2.20;;
16484;SDS011;8353;47.856;12.344;2023-08-01T02:36:07;3.60;;;2.40;;
16484;SDS011;8353;47.856;12.344;2023-08-01T02:45:31;3.88;;;3.35;;
16484;SDS011;8353;47.856;12.344;2023-08-01T02:48:17;2.42;;;2.22;;
16484;SDS011;8353;47.856;12.344;2023-08-01T02:51:03;4.15;;;2.92;;
16484;SDS011;8353;47.856;12.344;2023-08-01T02:53:33;2.83;;;2.40;;
16484;SDS011;8353;47.856;12.344;2023-08-01T02:56:04;2.65;;;2.45;;
16484;SDS011;8353;47.856;12.344;2023-08-01T02:58:37;2.70;;;2.28;;
16484;SDS011;8353;47.856;12.344;2023-08-01T03:01:07;3.08;;;2.30;;
16484;SDS011;8353;47.856;12.344;2023-08-01T03:03:39;2.42;;;2.20;;
16484;SDS011;8353;47.856;12.344;2023-08-01T03:06:10;2.30;;;2.10;;
16484;SDS011;8353;47.856;12.344;2023-08-01T03:08:41;5.30;;;3.10;;
16484;SDS011;8353;47.856;12.344;2023-08-01T03:11:11;2.60;;;2.40;;
16484;SDS011;8353;47.856;12.344;2023-08-01T03:13:43;3.10;;;2.47;;
16484;SDS011;8353;47.856;12.344;2023-08-01T03:16:16;2.63;;;2.30;;
16484;SDS011;8353;47.856;12.344;2023-08-01T03:18:46;2.75;;;2.25;;
16484;SDS011;8353;47.856;12.344;2023-08-01T03:21:17;2.75;;;2.40;;
16484;SDS011;8353;47.856;12.344;2023-08-01T03:23:47;2.90;;;2.60;;
16484;SDS011;8353;47.856;12.344;2023-08-01T03:26:18;2.78;;;2.53;;
16484;SDS011;8353;47.856;12.344;2023-08-01T03:28:49;3.33;;;2.72;;
16484;SDS011;8353;47.856;12.344;2023-08-01T03:31:20;2.65;;;2.28;;
16484;SDS011;8353;47.856;12.344;2023-08-01T03:33:50;2.58;;;2.20;;
16484;SDS011;8353;47.856;12.344;2023-08-01T03:36:24;2.88;;;2.30;;
16484;SDS011;8353;47.856;12.344;2023-08-01T03:38:54;2.38;;;2.17;;
16484;SDS011;8353;47.856;12.344;2023-08-01T03:41:25;3.78;;;2.53;;
16484;SDS011;8353;47.856;12.344;2023-08-01T03:43:56;2.90;;;2.60;;
16484;SDS011;8353;47.856;12.344;2023-08-01T03:46:27;2.40;;;2.08;;
16484;SDS011;8353;47.856;12.344;2023-08-01T03:48:57;3.35;;;2.78;;
16484;SDS011;8353;47.856;12.344;2023-08-01T03:51:27;2.22;;;2.03;;
16484;SDS011;8353;47.856;12.344;2023-08-01T03:53:57;3.17;;;2.55;;
16484;SDS011;8353;47.856;12.344;2023-08-01T03:56:28;2.70;;;2.10;;
16484;SDS011;8353;47.856;12.344;2023-08-01T03:59:00;3.75;;;2.78;;
16484;SDS011;8353;47.856;12.344;2023-08-01T04:01:33;3.08;;;2.78;;
16484;SDS011;8353;47.856;12.344;2023-08-01T04:04:03;3.17;;;2.88;;
16484;SDS011;8353;47.856;12.344;2023-08-01T04:06:34;3.67;;;2.83;;
16484;SDS011;8353;47.856;12.344;2023-08-01T04:09:04;3.90;;;3.10;;
16484;SDS011;8353;47.856;12.344;2023-08-01T04:11:35;4.65;;;3.55;;
16484;SDS011;8353;47.856;12.344;2023-08-01T04:14:07;6.63;;;3.10;;
16484;SDS011;8353;47.856;12.344;2023-08-01T04:16:38;3.15;;;2.80;;
16484;SDS011;8353;47.856;12.344;2023-08-01T04:19:08;3.75;;;2.80;;
16484;SDS011;8353;47.856;12.344;2023-08-01T04:21:42;2.97;;;2.67;;
16484;SDS011;8353;47.856;12.344;2023-08-01T04:24:12;2.70;;;2.50;;
16484;SDS011;8353;47.856;12.344;2023-08-01T04:26:42;3.38;;;2.50;;
16484;SDS011;8353;47.856;12.344;2023-08-01T04:29:14;5.22;;;3.15;;
16484;SDS011;8353;47.856;12.344;2023-08-01T04:31:47;3.25;;;2.78;;
16484;SDS011;8353;47.856;12.344;2023-08-01T04:34:17;3.85;;;2.70;;
16484;SDS011;8353;47.856;12.344;2023-08-01T04:36:47;3.38;;;2.40;;
16484;SDS011;8353;47.856;12.344;2023-08-01T04:39:17;4.20;;;2.60;;
16484;SDS011;8353;47.856;12.344;2023-08-01T04:41:47;4.68;;;3.60;;
16484;SDS011;8353;47.856;12.344;2023-08-01T04:44:20;5.43;;;3.80;;
16484;SDS011;8353;47.856;12.344;2023-08-01T04:46:51;3.97;;;3.47;;
16484;SDS011;8353;47.856;12.344;2023-08-01T04:49:21;3.90;;;2.90;;
16484;SDS011;8353;47.856;12.344;2023-08-01T04:51:52;4.78;;;3.30;;
16484;SDS011;8353;47.856;12.344;2023-08-01T04:54:23;3.58;;;3.00;;
16484;SDS011;8353;47.856;12.344;2023-08-01T04:56:53;2.72;;;2.45;;
16484;SDS011;8353;47.856;12.344;2023-08-01T04:59:25;5.28;;;4.65;;
16484;SDS011;8353;47.856;12.344;2023-08-01T05:01:55;4.05;;;3.65;;
16484;SDS011;8353;47.856;12.344;2023-08-01T05:04:25;4.07;;;3.67;;
16484;SDS011;8353;47.856;12.344;2023-08-01T05:06:56;6.03;;;4.85;;
16484;SDS011;8353;47.856;12.344;2023-08-01T05:09:27;6.10;;;4.88;;
16484;SDS011;8353;47.856;12.344;2023-08-01T05:11:57;3.97;;;3.17;;
16484;SDS011;8353;47.856;12.344;2023-08-01T05:14:30;6.00;;;4.68;;
16484;SDS011;8353;47.856;12.344;2023-08-01T05:17:00;3.47;;;3.17;;
16484;SDS011;8353;47.856;12.344;2023-08-01T05:19:31;3.42;;;2.88;;
16484;SDS011;8353;47.856;12.344;2023-08-01T05:22:01;6.15;;;3.15;;
16484;SDS011;8353;47.856;12.344;2023-08-01T05:24:34;4.70;;;2.92;;
16484;SDS011;8353;47.856;12.344;2023-08-01T05:27:04;4.28;;;2.88;;
16484;SDS011;8353;47.856;12.344;2023-08-01T05:29:37;3.42;;;2.78;;
16484;SDS011;8353;47.856;12.344;2023-08-01T05:32:10;4.13;;;3.72;;
16484;SDS011;8353;47.856;12.344;2023-08-01T05:34:40;5.00;;;4.25;;
16484;SDS011;8353;47.856;12.344;2023-08-01T05:37:11;4.93;;;3.92;;
16484;SDS011;8353;47.856;12.344;2023-08-01T05:39:46;6.00;;;3.97;;
16484;SDS011;8353;47.856;12.344;2023-08-01T05:42:17;8.73;;;5.00;;
16484;SDS011;8353;47.856;12.344;2023-08-01T05:44:48;4.45;;;3.97;;
16484;SDS011;8353;47.856;12.344;2023-08-01T05:47:19;5.07;;;3.20;;
16484;SDS011;8353;47.856;12.344;2023-08-01T05:49:51;3.33;;;2.95;;
16484;SDS011;8353;47.856;12.344;2023-08-01T05:52:21;4.65;;;3.92;;
16484;SDS011;8353;47.856;12.344;2023-08-01T05:54:53;4.22;;;3.50;;
16484;SDS011;8353;47.856;12.344;2023-08-01T05:57:24;3.85;;;3.10;;
16484;SDS011;8353;47.856;12.344;2023-08-01T05:59:56;4.47;;;3.28;;
16484;SDS011;8353;47.856;12.344;2023-08-01T06:02:27;3.50;;;3.08;;
16484;SDS011;8353;47.856;12.344;2023-08-01T06:04:57;3.90;;;3.60;;
16484;SDS011;8353;47.856;12.344;2023-08-01T06:07:27;4.35;;;3.95;;
16484;SDS011;8353;47.856;12.344;2023-08-01T06:09:58;4.63;;;4.22;;
16484;SDS011;8353;47.856;12.344;2023-08-01T06:12:28;4.45;;;3.83;;
16484;SDS011;8353;47.856;12.344;2023-08-01T06:15:00;4.25;;;3.85;;
16484;SDS011;8353;47.856;12.344;2023-08-01T06:17:31;5.20;;;3.53;;
16484;SDS011;8353;47.856;12.344;2023-08-01T06:20:01;5.50;;;3.40;;
16484;SDS011;8353;47.856;12.344;2023-08-01T06:22:34;3.22;;;2.92;;
16484;SDS011;8353;47.856;12.344;2023-08-01T06:25:05;4.97;;;3.30;;
16484;SDS011;8353;47.856;12.344;2023-08-01T06:27:37;5.00;;;3.70;;
16484;SDS011;8353;47.856;12.344;2023-08-01T06:30:09;4.57;;;3.60;;
16484;SDS011;8353;47.856;12.344;2023-08-01T06:32:44;3.70;;;3.33;;
16484;SDS011;8353;47.856;12.344;2023-08-01T06:35:15;4.03;;;3.22;;
16484;SDS011;8353;47.856;12.344;2023-08-01T06:37:46;3.05;;;2.60;;
16484;SDS011;8353;47.856;12.344;2023-08-01T06:40:17;4.57;;;3.20;;
16484;SDS011;8353;47.856;12.344;2023-08-01T06:42:47;3.78;;;3.20;;
16484;SDS011;8353;47.856;12.344;2023-08-01T06:45:19;3.72;;;2.70;;
16484;SDS011;8353;47.856;12.344;2023-08-01T06:47:52;3.30;;;3.00;;
16484;SDS011;8353;47.856;12.344;2023-08-01T06:50:22;4.30;;;3.05;;
16484;SDS011;8353;47.856;12.344;2023-08-01T06:52:53;3.40;;;2.78;;
16484;SDS011;8353;47.856;12.344;2023-08-01T06:55:24;3.78;;;2.95;;
16484;SDS011;8353;47.856;12.344;2023-08-01T06:57:55;3.40;;;3.10;;
16484;SDS011;8353;47.856;12.344;2023-08-01T07:00:27;3.13;;;2.65;;
16484;SDS011;8353;47.856;12.344;2023-08-01T07:02:58;6.30;;;3.65;;
16484;SDS011;8353;47.856;12.344;2023-08-01T07:05:29;4.57;;;3.53;;
16484;SDS011;8353;47.856;12.344;2023-08-01T07:07:59;4.20;;;3.05;;
16484;SDS011;8353;47.856;12.344;2023-08-01T07:10:30;4.10;;;3.35;;
16484;SDS011;8353;47.856;12.344;2023-08-01T07:13:04;4.63;;;3.50;;
16484;SDS011;8353;47.856;12.344;2023-08-01T07:15:36;3.20;;;2.88;;
16484;SDS011;8353;47.856;12.344;2023-08-01T07:18:06;4.80;;;3.15;;
16484;SDS011;8353;47.856;12.344;2023-08-01T07:20:36;2.97;;;2.50;;
16484;SDS011;8353;47.856;12.344;2023-08-01T07:23:07;3.30;;;2.97;;
16484;SDS011;8353;47.856;12.344;2023-08-01T07:25:37;3.60;;;2.50;;
16484;SDS011;8353;47.856;12.344;2023-08-01T07:28:08;5.32;;;3.17;;
16484;SDS011;8353;47.856;12.344;2023-08-01T07:30:43;3.53;;;3.22;;
16484;SDS011;8353;47.856;12.344;2023-08-01T07:33:14;5.00;;;3.33;;
16484;SDS011;8353;47.856;12.344;2023-08-01T07:35:45;4.65;;;3.17;;
16484;SDS011;8353;47.856;12.344;2023-08-01T07:38:15;3.47;;;3.13;;
16484;SDS011;8353;47.856;12.344;2023-08-01T07:40:46;2.70;;;2.40;;
16484;SDS011;8353;47.856;12.344;2023-08-01T07:43:16;3.58;;;2.95;;
16484;SDS011;8353;47.856;12.344;2023-08-01T07:45:48;4.32;;;3.17;;
16484;SDS011;8353;47.856;12.344;2023-08-01T07:48:19;3.42;;;3.13;;
16484;SDS011;8353;47.856;12.344;2023-08-01T07:50:52;4.00;;;2.92;;
16484;SDS011;8353;47.856;12.344;2023-08-01T07:53:22;3.47;;;2.78;;
16484;SDS011;8353;47.856;12.344;2023-08-01T07:55:53;4.35;;;3.22;;
16484;SDS011;8353;47.856;12.344;2023-08-01T07:58:23;3.90;;;2.92;;
16484;SDS011;8353;47.856;12.344;2023-08-01T08:01:01;4.18;;;3.55;;
16484;SDS011;8353;47.856;12.344;2023-08-01T08:03:34;3.28;;;2.83;;
16484;SDS011;8353;47.856;12.344;2023-08-01T08:06:04;4.20;;;2.95;;
16484;SDS011;8353;47.856;12.344;2023-08-01T08:08:35;3.42;;;2.60;;
16484;SDS011;8353;47.856;12.344;2023-08-01T08:11:05;4.13;;;3.03;;
16484;SDS011;8353;47.856;12.344;2023-08-01T08:13:36;3.90;;;3.20;;
16484;SDS011;8353;47.856;12.344;2023-08-01T08:16:30;5.05;;;2.67;;
16484;SDS011;8353;47.856;12.344;2023-08-01T08:19:01;3.25;;;2.72;;
16484;SDS011;8353;47.856;12.344;2023-08-01T08:21:32;3.72;;;2.97;;
16484;SDS011;8353;47.856;12.344;2023-08-01T08:24:03;3.40;;;3.10;;
16484;SDS011;8353;47.856;12.344;2023-08-01T08:26:34;3.45;;;3.13;;
16484;SDS011;8353;47.856;12.344;2023-08-01T08:29:10;5.50;;;3.15;;
16484;SDS011;8353;47.856;12.344;2023-08-01T08:31:42;4.45;;;2.92;;
16484;SDS011;8353;47.856;12.344;2023-08-01T08:34:13;4.22;;;3.00;;
16484;SDS011;8353;47.856;12.344;2023-08-01T08:36:43;4.18;;;3.15;;
16484;SDS011;8353;47.856;12.344;2023-08-01T08:39:15;3.42;;;3.13;;
16484;SDS011;8353;47.856;12.344;2023-08-01T08:41:45;5.82;;;3.50;;
16484;SDS011;8353;47.856;12.344;2023-08-01T08:44:17;3.20;;;2.70;;
16484;SDS011;8353;47.856;12.344;2023-08-01T08:46:51;4.57;;;3.20;;
16484;SDS011;8353;47.856;12.344;2023-08-01T08:49:22;4.35;;;3.03;;
16484;SDS011;8353;47.856;12.344;2023-08-01T08:51:56;3.28;;;2.88;;
16484;SDS011;8353;47.856;12.344;2023-08-01T08:54:26;3.30;;;3.00;;
16484;SDS011;8353;47.856;12.344;2023-08-01T08:56:58;5.55;;;3.33;;
16484;SDS011;8353;47.856;12.344;2023-08-01T08:59:28;4.47;;;3.60;;
16484;SDS011;8353;47.856;12.344;2023-08-01T09:02:02;4.68;;;3.95;;
16484;SDS011;8353;47.856;12.344;2023-08-01T09:04:33;4.10;;;3.40;;
16484;SDS011;8353;47.856;12.344;2023-08-01T09:07:06;3.47;;;2.67;;
16484;SDS011;8353;47.856;12.344;2023-08-01T09:09:39;3.88;;;3.20;;
16484;SDS011;8353;47.856;12.344;2023-08-01T09:12:10;3.80;;;2.80;;
16484;SDS011;8353;47.856;12.344;2023-08-01T09:14:41;4.32;;;3.28;;
16484;SDS011;8353;47.856;12.344;2023-08-01T09:17:14;4.43;;;2.70;;
16484;SDS011;8353;47.856;12.344;2023-08-01T09:19:46;3.25;;;2.58;;
16484;SDS011;8353;47.856;12.344;2023-08-01T09:22:16;3.10;;;2.80;;
16484;SDS011;8353;47.856;12.344;2023-08-01T09:24:50;4.72;;;2.90;;
16484;SDS011;8353;47.856;12.344;2023-08-01T09:27:21;3.50;;;3.15;;
16484;SDS011;8353;47.856;12.344;2023-08-01T09:29:51;3.00;;;2.63;;
16484;SDS011;8353;47.856;12.344;2023-08-01T09:32:23;3.38;;;2.90;;
16484;SDS011;8353;47.856;12.344;2023-08-01T09:34:58;5.72;;;3.30;;
16484;SDS011;8353;47.856;12.344;2023-08-01T09:37:37;4.85;;;3.92;;
16484;SDS011;8353;47.856;12.344;2023-08-01T09:40:09;3.47;;;3.17;;
16484;SDS011;8353;47.856;12.344;2023-08-01T09:42:39;3.95;;;3.47;;
16484;SDS011;8353;47.856;12.344;2023-08-01T09:45:13;6.63;;;3.80;;
16484;SDS011;8353;47.856;12.344;2023-08-01T09:47:46;3.58;;;3.28;;
16484;SDS011;8353;47.856;12.344;2023-08-01T09:50:19;3.35;;;2.88;;
16484;SDS011;8353;47.856;12.344;2023-08-01T09:52:50;5.85;;;3.30;;
16484;SDS011;8353;47.856;12.344;2023-08-01T09:55:25;4.82;;;3.20;;
16484;SDS011;8353;47.856;12.344;2023-08-01T09:58:00;5.45;;;3.80;;
16484;SDS011;8353;47.856;12.344;2023-08-01T10:00:31;4.35;;;3.50;;
16484;SDS011;8353;47.856;12.344;2023-08-01T10:03:05;3.90;;;3.33;;
16484;SDS011;8353;47.856;12.344;2023-08-01T10:05:36;4.53;;;3.60;;
16484;SDS011;8353;47.856;12.344;2023-08-01T10:08:08;4.35;;;3.03;;
16484;SDS011;8353;47.856;12.344;2023-08-01T10:10:39;3.85;;;3.20;;
16484;SDS011;8353;47.856;12.344;2023-08-01T10:13:10;6.15;;;3.22;;
16484;SDS011;8353;47.856;12.344;2023-08-01T10:15:44;4.68;;;3.33;;
16484;SDS011;8353;47.856;12.344;2023-08-01T10:18:16;4.10;;;3.30;;
16484;SDS011;8353;47.856;12.344;2023-08-01T10:20:46;4.68;;;3.30;;
16484;SDS011;8353;47.856;12.344;2023-08-01T10:23:17;3.63;;;3.00;;
16484;SDS011;8353;47.856;12.344;2023-08-01T10:25:49;4.72;;;3.40;;
16484;SDS011;8353;47.856;12.344;2023-08-01T10:28:49;3.60;;;3.30;;
16484;SDS011;8353;47.856;12.344;2023-08-01T10:31:21;3.67;;;3.30;;
16484;SDS011;8353;47.856;12.344;2023-08-01T10:34:15;4.05;;;3.40;;
16484;SDS011;8353;47.856;12.344;2023-08-01T10:36:54;4.85;;;3.70;;
16484;SDS011;8353;47.856;12.344;2023-08-01T10:39:25;3.55;;;3.25;;
16484;SDS011;8353;47.856;12.344;2023-08-01T10:41:57;3.38;;;2.75;;
16484;SDS011;8353;47.856;12.344;2023-08-01T10:44:30;3.45;;;3.13;;
16484;SDS011;8353;47.856;12.344;2023-08-01T10:47:02;4.60;;;2.80;;
16484;SDS011;8353;47.856;12.344;2023-08-01T10:49:36;3.80;;;2.80;;
16484;SDS011;8353;47.856;12.344;2023-08-01T10:52:15;4.30;;;2.90;;
16484;SDS011;8353;47.856;12.344;2023-08-01T10:54:46;3.75;;;3.28;;
16484;SDS011;8353;47.856;12.344;2023-08-01T10:57:17;3.05;;;2.80;;
16484;SDS011;8353;47.856;12.344;2023-08-01T10:59:48;4.25;;;3.20;;
16484;SDS011;8353;47.856;12.344;2023-08-01T11:02:21;4.40;;;3.15;;
16484;SDS011;8353;47.856;12.344;2023-08-01T11:04:58;3.60;;;3.28;;
16484;SDS011;8353;47.856;12.344;2023-08-01T11:07:31;4.30;;;3.90;;
16484;SDS011;8353;47.856;12.344;2023-08-01T11:10:03;3.40;;;3.10;;
16484;SDS011;8353;47.856;12.344;2023-08-01T11:12:35;4.75;;;3.42;;
16484;SDS011;8353;47.856;12.344;2023-08-01T11:15:07;3.25;;;2.95;;
16484;SDS011;8353;47.856;12.344;2023-08-01T11:17:38;5.18;;;3.72;;
16484;SDS011;8353;47.856;12.344;2023-08-01T11:20:11;4.55;;;3.47;;
16484;SDS011;8353;47.856;12.344;2023-08-01T11:22:49;4.78;;;4.00;;
16484;SDS011;8353;47.856;12.344;2023-08-01T11:25:31;3.60;;;3.30;;
16484;SDS011;8353;47.856;12.344;2023-08-01T11:28:06;4.47;;;3.40;;
16484;SDS011;8353;47.856;12.344;2023-08-01T11:30:39;5.60;;;4.53;;
16484;SDS011;8353;47.856;12.344;2023-08-01T11:33:15;4.38;;;3.78;;
16484;SDS011;8353;47.856;12.344;2023-08-01T11:35:49;4.35;;;3.80;;
16484;SDS011;8353;47.856;12.344;2023-08-01T11:38:22;5.07;;;4.25;;
16484;SDS011;8353;47.856;12.344;2023-08-01T11:40:56;4.10;;;3.70;;
16484;SDS011;8353;47.856;12.344;2023-08-01T11:43:29;4.18;;;3.88;;
16484;SDS011;8353;47.856;12.344;2023-08-01T11:46:09;4.68;;;4.00;;
16484;SDS011;8353;47.856;12.344;2023-08-01T11:48:44;5.50;;;4.38;;
16484;SDS011;8353;47.856;12.344;2023-08-01T11:51:17;6.05;;;4.50;;
16484;SDS011;8353;47.856;12.344;2023-08-01T11:53:57;4.13;;;3.67;;
16484;SDS011;8353;47.856;12.344;2023-08-01T11:56:30;6.38;;;4.03;;
16484;SDS011;8353;47.856;12.344;2023-08-01T11:59:07;4.90;;;4.03;;
16484;SDS011;8353;47.856;12.344;2023-08-01T12:01:41;4.80;;;3.75;;
16484;SDS011;8353;47.856;12.344;2023-08-01T12:04:23;5.40;;;3.60;;
16484;SDS011;8353;47.856;12.344;2023-08-01T12:06:56;5.00;;;4.47;;
16484;SDS011;8353;47.856;12.344;2023-08-01T12:09:31;5.03;;;4.35;;
16484;SDS011;8353;47.856;12.344;2023-08-01T12:12:03;5.03;;;4.50;;
16484;SDS011;8353;47.856;12.344;2023-08-01T12:14:40;8.05;;;6.18;;
16484;SDS011;8353;47.856;12.344;2023-08-01T12:17:11;5.75;;;4.43;;
16484;SDS011;8353;47.856;12.344;2023-08-01T12:19:42;6.55;;;5.07;;
16484;SDS011;8353;47.856;12.344;2023-08-01T12:22:13;7.80;;;4.97;;
16484;SDS011;8353;47.856;12.344;2023-08-01T12:24:44;4.72;;;4.10;;
16484;SDS011;8353;47.856;12.344;2023-08-01T12:27:15;4.63;;;3.58;;
16484;SDS011;8353;47.856;12.344;2023-08-01T12:29:46;5.00;;;4.20;;
16484;SDS011;8353;47.856;12.344;2023-08-01T12:32:16;4.40;;;3.70;;
16484;SDS011;8353;47.856;12.344;2023-08-01T12:34:46;3.67;;;3.38;;
16484;SDS011;8353;47.856;12.344;2023-08-01T12:37:18;5.80;;;4.45;;
16484;SDS011;8353;47.856;12.344;2023-08-01T12:39:49;3.50;;;3.20;;
16484;SDS011;8353;47.856;12.344;2023-08-01T12:42:19;4.47;;;3.83;;
16484;SDS011;8353;47.856;12.344;2023-08-01T12:44:53;4.60;;;3.40;;
16484;SDS011;8353;47.856;12.344;2023-08-01T12:47:23;3.53;;;3.10;;
16484;SDS011;8353;47.856;12.344;2023-08-01T12:49:53;4.75;;;3.50;;
16484;SDS011;8353;47.856;12.344;2023-08-01T12:52:26;4.72;;;3.78;;
16484;SDS011;8353;47.856;12.344;2023-08-01T12:54:57;5.72;;;4.03;;
16484;SDS011;8353;47.856;12.344;2023-08-01T12:57:28;6.05;;;4.13;;
16484;SDS011;8353;47.856;12.344;2023-08-01T12:59:58;5.97;;;4.30;;
16484;SDS011;8353;47.856;12.344;2023-08-01T13:02:30;4.10;;;3.67;;
16484;SDS011;8353;47.856;12.344;2023-08-01T13:05:00;4.72;;;4.22;;
16484;SDS011;8353;47.856;12.344;2023-08-01T13:07:32;5.32;;;4.38;;
16484;SDS011;8353;47.856;12.344;2023-08-01T13:10:03;3.92;;;3.40;;
16484;SDS011;8353;47.856;12.344;2023-08-01T13:12:33;4.18;;;3.75;;
16484;SDS011;8353;47.856;12.344;2023-08-01T13:15:04;4.40;;;3.28;;
16484;SDS011;8353;47.856;12.344;2023-08-01T13:17:35;4.05;;;3.50;;
16484;SDS011;8353;47.856;12.344;2023-08-01T13:20:06;4.40;;;3.38;;
16484;SDS011;8353;47.856;12.344;2023-08-01T13:22:38;4.13;;;3.63;;
16484;SDS011;8353;47.856;12.344;2023-08-01T13:25:09;3.85;;;3.20;;
16484;SDS011;8353;47.856;12.344;2023-08-01T13:27:40;3.58;;;3.25;;
16484;SDS011;8353;47.856;12.344;2023-08-01T13:30:11;3.30;;;3.00;;
16484;SDS011;8353;47.856;12.344;2023-08-01T13:32:43;3.50;;;3.00;;
16484;SDS011;8353;47.856;12.344;2023-08-01T13:35:13;4.03;;;3.17;;
16484;SDS011;8353;47.856;12.344;2023-08-01T13:37:46;3.70;;;3.05;;
16484;SDS011;8353;47.856;12.344;2023-08-01T13:40:16;4.95;;;3.38;;
16484;SDS011;8353;47.856;12.344;2023-08-01T13:42:46;3.17;;;2.88;;
16484;SDS011;8353;47.856;12.344;2023-08-01T13:45:16;3.53;;;2.58;;
16484;SDS011;8353;47.856;12.344;2023-08-01T13:47:47;2.70;;;2.20;;
16484;SDS011;8353;47.856;12.344;2023-08-01T13:50:17;2.72;;;2.30;;
16484;SDS011;8353;47.856;12.344;2023-08-01T13:52:49;4.13;;;2.30;;
16484;SDS011;8353;47.856;12.344;2023-08-01T13:55:19;2.38;;;2.17;;
16484;SDS011;8353;47.856;12.344;2023-08-01T13:57:50;2.47;;;2.28;;
16484;SDS011;8353;47.856;12.344;2023-08-01T14:00:20;2.65;;;2.45;;
16484;SDS011;8353;47.856;12.344;2023-08-01T14:02:50;4.15;;;2.55;;
16484;SDS011;8353;47.856;12.344;2023-08-01T14:05:21;3.92;;;2.55;;
16484;SDS011;8353;47.856;12.344;2023-08-01T14:07:55;3.08;;;2.45;;
16484;SDS011;8353;47.856;12.344;2023-08-01T14:10:26;3.10;;;2.53;;
16484;SDS011;8353;47.856;12.344;2023-08-01T14:12:56;2.88;;;2.42;;
16484;SDS011;8353;47.856;12.344;2023-08-01T14:15:27;1.98;;;1.80;;
16484;SDS011;8353;47.856;12.344;2023-08-01T14:17:57;3.40;;;2.40;;
16484;SDS011;8353;47.856;12.344;2023-08-01T14:20:27;3.35;;;3.05;;
16484;SDS011;8353;47.856;12.344;2023-08-01T14:22:59;3.17;;;2.20;;
16484;SDS011;8353;47.856;12.344;2023-08-01T14:25:29;2.20;;;1.85;;
16484;SDS011;8353;47.856;12.344;2023-08-01T14:27:59;2.38;;;1.80;;
16484;SDS011;8353;47.856;12.344;2023-08-01T14:30:30;5.68;;;1.95;;
16484;SDS011;8353;47.856;12.344;2023-08-01T14:33:01;2.00;;;1.70;;
16484;SDS011;8353;47.856;12.344;2023-08-01T14:35:32;1.85;;;1.75;;
16484;SDS011;8353;47.856;12.344;2023-08-01T14:38:04;2.63;;;1.90;;
16484;SDS011;8353;47.856;12.344;2023-08-01T14:40:35;1.75;;;1.50;;
16484;SDS011;8353;47.856;12.344;2023-08-01T14:43:08;2.15;;;1.60;;
16484;SDS011;8353;47.856;12.344;2023-08-01T14:45:40;1.85;;;1.60;;
16484;SDS011;8353;47.856;12.344;2023-08-01T14:48:10;2.25;;;1.30;;
16484;SDS011;8353;47.856;12.344;2023-08-01T14:50:41;2.17;;;1.20;;
16484;SDS011;8353;47.856;12.344;2023-08-01T14:53:13;2.10;;;1.15;;
16484;SDS011;8353;47.856;12.344;2023-08-01T14:55:44;2.20;;;1.45;;
16484;SDS011;8353;47.856;12.344;2023-08-01T14:58:14;1.35;;;1.25;;
16484;SDS011;8353;47.856;12.344;2023-08-01T15:00:44;1.23;;;1.13;;
16484;SDS011;8353;47.856;12.344;2023-08-01T15:03:14;2.42;;;1.10;;
16484;SDS011;8353;47.856;12.344;2023-08-01T15:05:46;1.23;;;1.00;;
16484;SDS011;8353;47.856;12.344;2023-08-01T15:08:18;1.75;;;1.00;;
16484;SDS011;8353;47.856;12.344;2023-08-01T15:10:48;0.73;;;0.70;;
16484;SDS011;8353;47.856;12.344;2023-08-01T15:13:19;1.60;;;1.50;;
16484;SDS011;8353;47.856;12.344;2023-08-01T15:15:49;1.15;;;1.05;;
16484;SDS011;8353;47.856;12.344;2023-08-01T15:18:20;1.58;;;1.13;;
16484;SDS011;8353;47.856;12.344;2023-08-01T15:20:50;1.50;;;1.10;;
16484;SDS011;8353;47.856;12.344;2023-08-01T15:23:23;1.10;;;1.00;;